sensor_id;sensor_type;location;lat;lon;timestamp;P1;durP1;ratioP1;P2;durP2;ratioP2
21360;SDS011;10839;43.206;23.550;2023-10-09T00:02:06;11.77;;;2.80;;
21360;SDS011;10839;43.206;23.550;2023-10-09T00:04:34;11.32;;;2.95;;
21360;SDS011;10839;43.206;23.550;2023-10-09T00:07:02;5.18;;;2.75;;
21360;SDS011;10839;43.206;23.550;2023-10-09T00:09:29;6.60;;;2.78;;
21360;SDS011;10839;43.206;23.550;2023-10-09T00:11:59;10.93;;;2.88;;
21360;SDS011;10839;43.206;23.550;2023-10-09T00:14:29;8.25;;;3.28;;
21360;SDS011;10839;43.206;23.550;2023-10-09T00:16:58;7.63;;;2.77;;
21360;SDS011;10839;43.206;23.550;2023-10-09T00:19:43;8.25;;;2.40;;
21360;SDS011;10839;43.206;23.550;2023-10-09T00:22:13;7.28;;;2.50;;
21360;SDS011;10839;43.206;23.550;2023-10-09T00:24:45;6.07;;;3.13;;
21360;SDS011;10839;43.206;23.550;2023-10-09T00:27:15;8.95;;;2.72;;
21360;SDS011;10839;43.206;23.550;2023-10-09T00:29:41;5.72;;;2.85;;
21360;SDS011;10839;43.206;23.550;2023-10-09T00:32:50;8.20;;;2.60;;
21360;SDS011;10839;43.206;23.550;2023-10-09T00:38:05;7.97;;;2.88;;
21360;SDS011;10839;43.206;23.550;2023-10-09T00:40:47;6.80;;;2.70;;
21360;SDS011;10839;43.206;23.550;2023-10-09T00:43:22;5.93;;;2.75;;
21360;SDS011;10839;43.206;23.550;2023-10-09T00:45:54;8.00;;;2.72;;
21360;SDS011;10839;43.206;23.550;2023-10-09T00:48:21;9.88;;;3.17;;
21360;SDS011;10839;43.206;23.550;2023-10-09T00:51:32;5.25;;;2.92;;
21360;SDS011;10839;43.206;23.550;2023-10-09T00:54:01;9.10;;;3.05;;
21360;SDS011;10839;43.206;23.550;2023-10-09T00:56:39;6.10;;;2.95;;
21360;SDS011;10839;43.206;23.550;2023-10-09T00:59:16;9.13;;;3.42;;
21360;SDS011;10839;43.206;23.550;2023-10-09T01:01:46;10.23;;;3.40;;
21360;SDS011;10839;43.206;23.550;2023-10-09T01:04:22;9.70;;;3.85;;
21360;SDS011;10839;43.206;23.550;2023-10-09T01:06:50;7.32;;;4.05;;
21360;SDS011;10839;43.206;23.550;2023-10-09T01:09:34;8.27;;;4.60;;
21360;SDS011;10839;43.206;23.550;2023-10-09T01:12:03;9.80;;;4.45;;
21360;SDS011;10839;43.206;23.550;2023-10-09T01:14:30;9.00;;;4.40;;
21360;SDS011;10839;43.206;23.550;2023-10-09T01:17:01;7.60;;;4.00;;
21360;SDS011;10839;43.206;23.550;2023-10-09T01:19:33;7.68;;;4.13;;
21360;SDS011;10839;43.206;23.550;2023-10-09T01:21:59;12.27;;;4.60;;
21360;SDS011;10839;43.206;23.550;2023-10-09T01:24:42;12.15;;;4.57;;
21360;SDS011;10839;43.206;23.550;2023-10-09T01:27:09;13.05;;;4.35;;
21360;SDS011;10839;43.206;23.550;2023-10-09T01:29:41;10.07;;;4.35;;
21360;SDS011;10839;43.206;23.550;2023-10-09T01:32:09;16.85;;;5.05;;
21360;SDS011;10839;43.206;23.550;2023-10-09T01:34:42;12.45;;;4.25;;
21360;SDS011;10839;43.206;23.550;2023-10-09T01:37:12;6.47;;;3.90;;
21360;SDS011;10839;43.206;23.550;2023-10-09T01:39:51;19.75;;;4.40;;
21360;SDS011;10839;43.206;23.550;2023-10-09T01:42:20;11.73;;;3.92;;
21360;SDS011;10839;43.206;23.550;2023-10-09T01:44:55;8.75;;;3.80;;
21360;SDS011;10839;43.206;23.550;2023-10-09T01:47:23;11.63;;;3.58;;
21360;SDS011;10839;43.206;23.550;2023-10-09T01:49:51;9.80;;;3.55;;
21360;SDS011;10839;43.206;23.550;2023-10-09T01:52:19;6.63;;;3.67;;
21360;SDS011;10839;43.206;23.550;2023-10-09T01:54:46;6.72;;;3.10;;
21360;SDS011;10839;43.206;23.550;2023-10-09T01:57:16;7.38;;;3.58;;
21360;SDS011;10839;43.206;23.550;2023-10-09T01:59:55;7.70;;;3.50;;
21360;SDS011;10839;43.206;23.550;2023-10-09T02:02:25;8.07;;;2.92;;
21360;SDS011;10839;43.206;23.550;2023-10-09T02:05:04;8.65;;;2.95;;
21360;SDS011;10839;43.206;23.550;2023-10-09T02:07:40;9.38;;;2.70;;
21360;SDS011;10839;43.206;23.550;2023-10-09T02:10:08;14.52;;;8.35;;
21360;SDS011;10839;43.206;23.550;2023-10-09T02:12:50;30.30;;;17.95;;
21360;SDS011;10839;43.206;23.550;2023-10-09T02:15:26;14.27;;;8.98;;
21360;SDS011;10839;43.206;23.550;2023-10-09T02:18:09;15.68;;;7.20;;
21360;SDS011;10839;43.206;23.550;2023-10-09T02:20:43;20.98;;;9.10;;
21360;SDS011;10839;43.206;23.550;2023-10-09T02:23:21;14.00;;;5.88;;
21360;SDS011;10839;43.206;23.550;2023-10-09T02:25:59;12.95;;;7.00;;
21360;SDS011;10839;43.206;23.550;2023-10-09T02:28:30;15.63;;;4.13;;
21360;SDS011;10839;43.206;23.550;2023-10-09T02:30:58;8.90;;;4.18;;
21360;SDS011;10839;43.206;23.550;2023-10-09T02:33:27;10.23;;;4.15;;
21360;SDS011;10839;43.206;23.550;2023-10-09T02:35:58;8.68;;;4.47;;
21360;SDS011;10839;43.206;23.550;2023-10-09T02:38:31;9.60;;;4.18;;
21360;SDS011;10839;43.206;23.550;2023-10-09T02:41:06;15.18;;;7.20;;
21360;SDS011;10839;43.206;23.550;2023-10-09T02:43:38;68.72;;;38.65;;
21360;SDS011;10839;43.206;23.550;2023-10-09T02:46:13;58.63;;;31.85;;
21360;SDS011;10839;43.206;23.550;2023-10-09T02:48:50;16.00;;;8.68;;
21360;SDS011;10839;43.206;23.550;2023-10-09T02:51:17;22.93;;;8.30;;
21360;SDS011;10839;43.206;23.550;2023-10-09T02:53:49;19.35;;;7.10;;
21360;SDS011;10839;43.206;23.550;2023-10-09T02:56:15;18.42;;;7.57;;
21360;SDS011;10839;43.206;23.550;2023-10-09T02:58:43;18.38;;;6.70;;
21360;SDS011;10839;43.206;23.550;2023-10-09T03:01:10;16.65;;;6.78;;
21360;SDS011;10839;43.206;23.550;2023-10-09T03:03:41;19.50;;;7.70;;
21360;SDS011;10839;43.206;23.550;2023-10-09T03:06:13;15.88;;;7.40;;
21360;SDS011;10839;43.206;23.550;2023-10-09T03:08:54;91.68;;;49.13;;
21360;SDS011;10839;43.206;23.550;2023-10-09T03:11:20;35.13;;;13.60;;
21360;SDS011;10839;43.206;23.550;2023-10-09T03:13:46;30.48;;;13.40;;
21360;SDS011;10839;43.206;23.550;2023-10-09T03:16:14;24.33;;;10.88;;
21360;SDS011;10839;43.206;23.550;2023-10-09T03:18:47;23.13;;;9.90;;
21360;SDS011;10839;43.206;23.550;2023-10-09T03:21:18;38.05;;;17.63;;
21360;SDS011;10839;43.206;23.550;2023-10-09T03:23:48;55.63;;;30.50;;
21360;SDS011;10839;43.206;23.550;2023-10-09T03:26:17;24.88;;;13.88;;
21360;SDS011;10839;43.206;23.550;2023-10-09T03:28:43;24.17;;;9.65;;
21360;SDS011;10839;43.206;23.550;2023-10-09T03:31:13;19.75;;;9.98;;
21360;SDS011;10839;43.206;23.550;2023-10-09T03:33:39;20.77;;;8.77;;
21360;SDS011;10839;43.206;23.550;2023-10-09T03:36:06;55.92;;;28.90;;
21360;SDS011;10839;43.206;23.550;2023-10-09T03:38:36;61.60;;;32.85;;
21360;SDS011;10839;43.206;23.550;2023-10-09T03:41:06;43.25;;;19.02;;
21360;SDS011;10839;43.206;23.550;2023-10-09T03:43:36;26.58;;;11.15;;
21360;SDS011;10839;43.206;23.550;2023-10-09T03:46:10;19.35;;;9.07;;
21360;SDS011;10839;43.206;23.550;2023-10-09T03:48:59;24.60;;;7.72;;
21360;SDS011;10839;43.206;23.550;2023-10-09T03:51:36;18.50;;;7.82;;
21360;SDS011;10839;43.206;23.550;2023-10-09T03:54:02;20.88;;;7.85;;
21360;SDS011;10839;43.206;23.550;2023-10-09T03:56:34;17.17;;;7.47;;
21360;SDS011;10839;43.206;23.550;2023-10-09T03:59:00;18.98;;;7.45;;
21360;SDS011;10839;43.206;23.550;2023-10-09T04:01:29;20.95;;;8.25;;
21360;SDS011;10839;43.206;23.550;2023-10-09T04:03:55;43.58;;;22.27;;
21360;SDS011;10839;43.206;23.550;2023-10-09T04:06:25;51.20;;;24.33;;
21360;SDS011;10839;43.206;23.550;2023-10-09T04:11:56;25.98;;;10.98;;
21360;SDS011;10839;43.206;23.550;2023-10-09T04:14:42;19.98;;;8.23;;
21360;SDS011;10839;43.206;23.550;2023-10-09T04:17:23;21.13;;;7.38;;
21360;SDS011;10839;43.206;23.550;2023-10-09T04:19:55;18.85;;;7.47;;
21360;SDS011;10839;43.206;23.550;2023-10-09T04:22:40;20.65;;;7.22;;
21360;SDS011;10839;43.206;23.550;2023-10-09T04:25:19;13.77;;;5.78;;
21360;SDS011;10839;43.206;23.550;2023-10-09T04:28:00;15.27;;;6.65;;
21360;SDS011;10839;43.206;23.550;2023-10-09T04:30:38;12.95;;;5.93;;
21360;SDS011;10839;43.206;23.550;2023-10-09T04:33:31;31.20;;;15.02;;
21360;SDS011;10839;43.206;23.550;2023-10-09T04:36:06;51.20;;;23.17;;
21360;SDS011;10839;43.206;23.550;2023-10-09T04:38:46;26.05;;;9.07;;
21360;SDS011;10839;43.206;23.550;2023-10-09T04:41:31;15.35;;;5.97;;
21360;SDS011;10839;43.206;23.550;2023-10-09T04:44:18;20.45;;;5.30;;
21360;SDS011;10839;43.206;23.550;2023-10-09T04:46:44;13.45;;;5.15;;
21360;SDS011;10839;43.206;23.550;2023-10-09T04:49:31;24.60;;;5.55;;
21360;SDS011;10839;43.206;23.550;2023-10-09T04:52:15;17.90;;;4.78;;
21360;SDS011;10839;43.206;23.550;2023-10-09T04:54:54;17.48;;;5.30;;
21360;SDS011;10839;43.206;23.550;2023-10-09T04:57:35;21.35;;;5.93;;
21360;SDS011;10839;43.206;23.550;2023-10-09T05:00:24;19.40;;;5.65;;
21360;SDS011;10839;43.206;23.550;2023-10-09T05:02:56;17.77;;;5.72;;
21360;SDS011;10839;43.206;23.550;2023-10-09T05:05:30;14.77;;;5.00;;
21360;SDS011;10839;43.206;23.550;2023-10-09T05:10:46;17.58;;;5.43;;
21360;SDS011;10839;43.206;23.550;2023-10-09T05:16:06;16.98;;;4.47;;
21360;SDS011;10839;43.206;23.550;2023-10-09T05:18:39;9.95;;;4.00;;
21360;SDS011;10839;43.206;23.550;2023-10-09T05:21:05;11.68;;;3.72;;
21360;SDS011;10839;43.206;23.550;2023-10-09T05:23:34;16.23;;;4.05;;
21360;SDS011;10839;43.206;23.550;2023-10-09T05:26:09;17.15;;;4.25;;
21360;SDS011;10839;43.206;23.550;2023-10-09T05:28:54;11.00;;;3.85;;
21360;SDS011;10839;43.206;23.550;2023-10-09T05:31:23;17.45;;;4.07;;
21360;SDS011;10839;43.206;23.550;2023-10-09T05:34:10;10.27;;;3.33;;
21360;SDS011;10839;43.206;23.550;2023-10-09T05:36:44;13.00;;;7.20;;
21360;SDS011;10839;43.206;23.550;2023-10-09T05:39:13;25.70;;;13.05;;
21360;SDS011;10839;43.206;23.550;2023-10-09T05:42:02;11.27;;;3.75;;
21360;SDS011;10839;43.206;23.550;2023-10-09T05:44:35;9.13;;;3.67;;
21360;SDS011;10839;43.206;23.550;2023-10-09T05:47:19;10.32;;;3.50;;
21360;SDS011;10839;43.206;23.550;2023-10-09T05:50:00;11.57;;;3.80;;
21360;SDS011;10839;43.206;23.550;2023-10-09T05:52:46;14.18;;;3.55;;
21360;SDS011;10839;43.206;23.550;2023-10-09T05:55:21;10.27;;;2.47;;
21360;SDS011;10839;43.206;23.550;2023-10-09T05:58:03;11.10;;;3.15;;
21360;SDS011;10839;43.206;23.550;2023-10-09T06:00:47;9.88;;;2.90;;
21360;SDS011;10839;43.206;23.550;2023-10-09T06:03:31;8.93;;;3.65;;
21360;SDS011;10839;43.206;23.550;2023-10-09T06:06:17;9.00;;;2.53;;
21360;SDS011;10839;43.206;23.550;2023-10-09T06:09:07;6.28;;;2.95;;
21360;SDS011;10839;43.206;23.550;2023-10-09T06:11:36;7.75;;;2.10;;
21360;SDS011;10839;43.206;23.550;2023-10-09T06:14:05;5.10;;;1.90;;
21360;SDS011;10839;43.206;23.550;2023-10-09T06:16:34;3.00;;;1.52;;
21360;SDS011;10839;43.206;23.550;2023-10-09T06:19:12;8.45;;;1.52;;
21360;SDS011;10839;43.206;23.550;2023-10-09T06:21:48;4.40;;;1.20;;
21360;SDS011;10839;43.206;23.550;2023-10-09T06:24:20;3.95;;;1.60;;
21360;SDS011;10839;43.206;23.550;2023-10-09T06:26:51;6.70;;;1.40;;
21360;SDS011;10839;43.206;23.550;2023-10-09T06:29:26;3.28;;;1.38;;
21360;SDS011;10839;43.206;23.550;2023-10-09T06:32:02;1.55;;;1.27;;
21360;SDS011;10839;43.206;23.550;2023-10-09T06:34:44;3.80;;;1.13;;
21360;SDS011;10839;43.206;23.550;2023-10-09T06:37:14;3.88;;;1.25;;
21360;SDS011;10839;43.206;23.550;2023-10-09T06:39:53;6.03;;;1.00;;
21360;SDS011;10839;43.206;23.550;2023-10-09T06:42:25;4.85;;;1.10;;
21360;SDS011;10839;43.206;23.550;2023-10-09T06:45:05;4.68;;;1.20;;
21360;SDS011;10839;43.206;23.550;2023-10-09T06:47:42;2.30;;;1.00;;
21360;SDS011;10839;43.206;23.550;2023-10-09T06:50:21;3.40;;;1.23;;
21360;SDS011;10839;43.206;23.550;2023-10-09T06:52:52;2.92;;;1.02;;
21360;SDS011;10839;43.206;23.550;2023-10-09T06:55:36;2.10;;;1.00;;
21360;SDS011;10839;43.206;23.550;2023-10-09T06:58:20;2.88;;;1.08;;
21360;SDS011;10839;43.206;23.550;2023-10-09T07:00:53;5.18;;;1.05;;
21360;SDS011;10839;43.206;23.550;2023-10-09T07:03:24;3.33;;;1.10;;
21360;SDS011;10839;43.206;23.550;2023-10-09T07:06:08;2.47;;;1.02;;
21360;SDS011;10839;43.206;23.550;2023-10-09T07:08:35;1.50;;;1.10;;
21360;SDS011;10839;43.206;23.550;2023-10-09T07:11:23;2.45;;;1.00;;
21360;SDS011;10839;43.206;23.550;2023-10-09T07:16:56;3.20;;;1.83;;
21360;SDS011;10839;43.206;23.550;2023-10-09T07:19:49;6.63;;;1.10;;
21360;SDS011;10839;43.206;23.550;2023-10-09T07:22:16;6.55;;;1.40;;
21360;SDS011;10839;43.206;23.550;2023-10-09T07:24:45;1.70;;;0.90;;
21360;SDS011;10839;43.206;23.550;2023-10-09T07:27:28;11.00;;;1.20;;
21360;SDS011;10839;43.206;23.550;2023-10-09T07:30:17;5.07;;;1.38;;
21360;SDS011;10839;43.206;23.550;2023-10-09T07:32:58;6.28;;;0.93;;
21360;SDS011;10839;43.206;23.550;2023-10-09T07:35:41;4.63;;;0.90;;
21360;SDS011;10839;43.206;23.550;2023-10-09T07:40:54;2.08;;;0.88;;
21360;SDS011;10839;43.206;23.550;2023-10-09T07:43:27;3.50;;;1.20;;
21360;SDS011;10839;43.206;23.550;2023-10-09T07:46:07;1.83;;;1.25;;
21360;SDS011;10839;43.206;23.550;2023-10-09T07:48:54;2.67;;;1.08;;
21360;SDS011;10839;43.206;23.550;2023-10-09T07:51:21;1.58;;;0.80;;
21360;SDS011;10839;43.206;23.550;2023-10-09T07:53:49;2.22;;;1.02;;
21360;SDS011;10839;43.206;23.550;2023-10-09T07:56:25;6.43;;;1.23;;
21360;SDS011;10839;43.206;23.550;2023-10-09T07:58:56;4.22;;;1.13;;
21360;SDS011;10839;43.206;23.550;2023-10-09T08:01:26;3.95;;;1.30;;
21360;SDS011;10839;43.206;23.550;2023-10-09T08:03:51;3.78;;;1.00;;
21360;SDS011;10839;43.206;23.550;2023-10-09T08:06:27;3.58;;;1.23;;
21360;SDS011;10839;43.206;23.550;2023-10-09T08:09:05;3.63;;;0.95;;
21360;SDS011;10839;43.206;23.550;2023-10-09T08:11:38;4.13;;;1.75;;
21360;SDS011;10839;43.206;23.550;2023-10-09T08:14:11;9.30;;;1.42;;
21360;SDS011;10839;43.206;23.550;2023-10-09T08:16:57;6.30;;;1.40;;
21360;SDS011;10839;43.206;23.550;2023-10-09T08:19:42;5.57;;;1.60;;
21360;SDS011;10839;43.206;23.550;2023-10-09T08:22:37;4.60;;;3.08;;
21360;SDS011;10839;43.206;23.550;2023-10-09T08:25:10;7.23;;;5.20;;
21360;SDS011;10839;43.206;23.550;2023-10-09T08:28:00;5.43;;;2.90;;
21360;SDS011;10839;43.206;23.550;2023-10-09T08:30:40;2.50;;;1.60;;
21360;SDS011;10839;43.206;23.550;2023-10-09T08:33:35;3.17;;;1.50;;
21360;SDS011;10839;43.206;23.550;2023-10-09T08:36:09;5.10;;;2.10;;
21360;SDS011;10839;43.206;23.550;2023-10-09T08:38:40;23.55;;;10.65;;
21360;SDS011;10839;43.206;23.550;2023-10-09T08:41:08;6.65;;;3.35;;
21360;SDS011;10839;43.206;23.550;2023-10-09T08:43:47;5.45;;;2.30;;
21360;SDS011;10839;43.206;23.550;2023-10-09T08:46:27;4.22;;;1.90;;
21360;SDS011;10839;43.206;23.550;2023-10-09T08:48:54;3.50;;;1.40;;
21360;SDS011;10839;43.206;23.550;2023-10-09T08:51:23;7.20;;;1.25;;
21360;SDS011;10839;43.206;23.550;2023-10-09T08:53:50;3.10;;;1.10;;
21360;SDS011;10839;43.206;23.550;2023-10-09T08:56:17;4.25;;;1.00;;
21360;SDS011;10839;43.206;23.550;2023-10-09T08:58:48;6.65;;;0.90;;
21360;SDS011;10839;43.206;23.550;2023-10-09T09:01:16;3.42;;;0.95;;
21360;SDS011;10839;43.206;23.550;2023-10-09T09:03:47;4.68;;;1.08;;
21360;SDS011;10839;43.206;23.550;2023-10-09T09:06:15;3.90;;;0.90;;
21360;SDS011;10839;43.206;23.550;2023-10-09T09:08:45;17.88;;;10.55;;
21360;SDS011;10839;43.206;23.550;2023-10-09T09:11:18;10.82;;;6.45;;
21360;SDS011;10839;43.206;23.550;2023-10-09T09:16:32;11.82;;;4.90;;
21360;SDS011;10839;43.206;23.550;2023-10-09T09:19:02;3.17;;;1.60;;
21360;SDS011;10839;43.206;23.550;2023-10-09T09:21:39;9.20;;;4.45;;
21360;SDS011;10839;43.206;23.550;2023-10-09T09:24:11;7.90;;;4.72;;
21360;SDS011;10839;43.206;23.550;2023-10-09T09:26:52;1.65;;;1.30;;
21360;SDS011;10839;43.206;23.550;2023-10-09T09:32:08;3.88;;;1.17;;
21360;SDS011;10839;43.206;23.550;2023-10-09T09:37:20;3.58;;;1.20;;
21360;SDS011;10839;43.206;23.550;2023-10-09T09:39:49;5.03;;;0.98;;
21360;SDS011;10839;43.206;23.550;2023-10-09T09:42:18;3.20;;;0.90;;
21360;SDS011;10839;43.206;23.550;2023-10-09T09:44:51;1.63;;;0.83;;
21360;SDS011;10839;43.206;23.550;2023-10-09T09:47:17;6.05;;;1.58;;
21360;SDS011;10839;43.206;23.550;2023-10-09T09:49:53;2.17;;;0.68;;
21360;SDS011;10839;43.206;23.550;2023-10-09T09:52:29;2.97;;;0.80;;
21360;SDS011;10839;43.206;23.550;2023-10-09T09:55:06;3.28;;;0.90;;
21360;SDS011;10839;43.206;23.550;2023-10-09T09:57:46;4.70;;;0.90;;
21360;SDS011;10839;43.206;23.550;2023-10-09T10:00:18;2.60;;;1.20;;
21360;SDS011;10839;43.206;23.550;2023-10-09T10:03:01;5.28;;;1.40;;
21360;SDS011;10839;43.206;23.550;2023-10-09T10:05:33;1.65;;;1.00;;
21360;SDS011;10839;43.206;23.550;2023-10-09T10:07:59;5.72;;;1.10;;
21360;SDS011;10839;43.206;23.550;2023-10-09T10:10:35;1.73;;;1.05;;
21360;SDS011;10839;43.206;23.550;2023-10-09T10:13:15;2.55;;;1.30;;
21360;SDS011;10839;43.206;23.550;2023-10-09T10:18:51;7.75;;;4.40;;
21360;SDS011;10839;43.206;23.550;2023-10-09T10:21:50;6.00;;;1.40;;
21360;SDS011;10839;43.206;23.550;2023-10-09T10:35:19;3.60;;;1.10;;
21360;SDS011;10839;43.206;23.550;2023-10-09T10:38:00;6.18;;;1.98;;
21360;SDS011;10839;43.206;23.550;2023-10-09T10:40:40;4.22;;;1.23;;
21360;SDS011;10839;43.206;23.550;2023-10-09T10:43:17;1.92;;;0.98;;
21360;SDS011;10839;43.206;23.550;2023-10-09T10:46:03;2.42;;;1.30;;
21360;SDS011;10839;43.206;23.550;2023-10-09T10:48:36;2.45;;;0.60;;
21360;SDS011;10839;43.206;23.550;2023-10-09T10:51:06;1.85;;;0.82;;
21360;SDS011;10839;43.206;23.550;2023-10-09T10:53:36;1.48;;;1.20;;
21360;SDS011;10839;43.206;23.550;2023-10-09T10:56:14;3.50;;;1.02;;
21360;SDS011;10839;43.206;23.550;2023-10-09T10:58:40;4.28;;;1.60;;
21360;SDS011;10839;43.206;23.550;2023-10-09T11:01:33;2.65;;;0.90;;
21360;SDS011;10839;43.206;23.550;2023-10-09T11:04:22;1.55;;;0.93;;
21360;SDS011;10839;43.206;23.550;2023-10-09T11:09:26;2.10;;;0.90;;
21360;SDS011;10839;43.206;23.550;2023-10-09T11:12:04;1.85;;;1.38;;
21360;SDS011;10839;43.206;23.550;2023-10-09T11:14:49;1.50;;;1.00;;
21360;SDS011;10839;43.206;23.550;2023-10-09T11:17:38;3.92;;;1.08;;
21360;SDS011;10839;43.206;23.550;2023-10-09T11:20:06;2.38;;;0.98;;
21360;SDS011;10839;43.206;23.550;2023-10-09T11:22:50;4.78;;;1.10;;
21360;SDS011;10839;43.206;23.550;2023-10-09T11:25:42;1.48;;;1.10;;
21360;SDS011;10839;43.206;23.550;2023-10-09T11:28:24;2.58;;;1.00;;
21360;SDS011;10839;43.206;23.550;2023-10-09T11:31:11;4.20;;;1.10;;
21360;SDS011;10839;43.206;23.550;2023-10-09T11:33:48;1.33;;;0.82;;
21360;SDS011;10839;43.206;23.550;2023-10-09T11:36:19;5.90;;;0.82;;
21360;SDS011;10839;43.206;23.550;2023-10-09T11:38:57;3.00;;;0.85;;
21360;SDS011;10839;43.206;23.550;2023-10-09T11:41:47;1.98;;;1.00;;
21360;SDS011;10839;43.206;23.550;2023-10-09T11:44:15;4.63;;;1.65;;
21360;SDS011;10839;43.206;23.550;2023-10-09T11:47:00;5.05;;;1.02;;
21360;SDS011;10839;43.206;23.550;2023-10-09T11:49:57;3.38;;;1.13;;
21360;SDS011;10839;43.206;23.550;2023-10-09T11:52:29;2.30;;;1.00;;
21360;SDS011;10839;43.206;23.550;2023-10-09T11:55:03;6.55;;;4.32;;
21360;SDS011;10839;43.206;23.550;2023-10-09T11:57:40;5.03;;;2.72;;
21360;SDS011;10839;43.206;23.550;2023-10-09T12:00:06;5.35;;;2.67;;
21360;SDS011;10839;43.206;23.550;2023-10-09T12:02:37;4.80;;;2.60;;
21360;SDS011;10839;43.206;23.550;2023-10-09T12:05:10;6.95;;;1.90;;
21360;SDS011;10839;43.206;23.550;2023-10-09T12:07:44;8.03;;;3.03;;
21360;SDS011;10839;43.206;23.550;2023-10-09T12:10:11;5.90;;;1.75;;
21360;SDS011;10839;43.206;23.550;2023-10-09T12:12:39;12.52;;;7.75;;
21360;SDS011;10839;43.206;23.550;2023-10-09T12:15:12;23.38;;;14.43;;
21360;SDS011;10839;43.206;23.550;2023-10-09T12:17:44;9.52;;;5.95;;
21360;SDS011;10839;43.206;23.550;2023-10-09T12:20:15;4.30;;;3.17;;
21360;SDS011;10839;43.206;23.550;2023-10-09T12:23:07;4.45;;;2.97;;
21360;SDS011;10839;43.206;23.550;2023-10-09T12:25:38;3.88;;;2.28;;
21360;SDS011;10839;43.206;23.550;2023-10-09T12:28:04;3.28;;;1.77;;
21360;SDS011;10839;43.206;23.550;2023-10-09T12:30:30;8.65;;;1.33;;
21360;SDS011;10839;43.206;23.550;2023-10-09T12:33:04;2.95;;;1.23;;
21360;SDS011;10839;43.206;23.550;2023-10-09T12:35:30;2.55;;;1.10;;
21360;SDS011;10839;43.206;23.550;2023-10-09T12:37:59;3.63;;;0.90;;
21360;SDS011;10839;43.206;23.550;2023-10-09T12:40:25;2.22;;;0.90;;
21360;SDS011;10839;43.206;23.550;2023-10-09T12:42:57;6.32;;;0.90;;
21360;SDS011;10839;43.206;23.550;2023-10-09T12:45:26;1.73;;;1.00;;
21360;SDS011;10839;43.206;23.550;2023-10-09T12:47:55;5.40;;;1.15;;
21360;SDS011;10839;43.206;23.550;2023-10-09T12:50:28;15.85;;;8.57;;
21360;SDS011;10839;43.206;23.550;2023-10-09T12:52:55;31.48;;;17.85;;
21360;SDS011;10839;43.206;23.550;2023-10-09T12:55:28;2.78;;;1.60;;
21360;SDS011;10839;43.206;23.550;2023-10-09T12:57:59;2.33;;;1.30;;
21360;SDS011;10839;43.206;23.550;2023-10-09T13:00:32;5.03;;;1.40;;
21360;SDS011;10839;43.206;23.550;2023-10-09T13:03:03;5.72;;;1.13;;
21360;SDS011;10839;43.206;23.550;2023-10-09T13:05:51;4.97;;;1.52;;
21360;SDS011;10839;43.206;23.550;2023-10-09T13:08:22;4.30;;;1.65;;
21360;SDS011;10839;43.206;23.550;2023-10-09T13:11:02;2.67;;;1.70;;
21360;SDS011;10839;43.206;23.550;2023-10-09T13:13:42;21.60;;;13.05;;
21360;SDS011;10839;43.206;23.550;2023-10-09T13:16:12;26.35;;;16.25;;
21360;SDS011;10839;43.206;23.550;2023-10-09T13:18:55;13.63;;;9.40;;
21360;SDS011;10839;43.206;23.550;2023-10-09T13:21:22;15.02;;;9.50;;
21360;SDS011;10839;43.206;23.550;2023-10-09T13:23:50;5.15;;;2.55;;
21360;SDS011;10839;43.206;23.550;2023-10-09T13:26:20;2.75;;;1.20;;
21360;SDS011;10839;43.206;23.550;2023-10-09T13:28:50;4.63;;;1.30;;
21360;SDS011;10839;43.206;23.550;2023-10-09T13:31:20;4.15;;;1.40;;
21360;SDS011;10839;43.206;23.550;2023-10-09T13:33:51;7.63;;;3.45;;
21360;SDS011;10839;43.206;23.550;2023-10-09T13:36:21;5.43;;;2.97;;
21360;SDS011;10839;43.206;23.550;2023-10-09T13:39:06;4.25;;;1.98;;
21360;SDS011;10839;43.206;23.550;2023-10-09T13:41:52;4.35;;;1.80;;
21360;SDS011;10839;43.206;23.550;2023-10-09T13:44:27;4.32;;;1.38;;
21360;SDS011;10839;43.206;23.550;2023-10-09T13:46:54;2.85;;;1.35;;
21360;SDS011;10839;43.206;23.550;2023-10-09T13:49:21;3.20;;;1.02;;
21360;SDS011;10839;43.206;23.550;2023-10-09T13:54:22;6.10;;;3.40;;
21360;SDS011;10839;43.206;23.550;2023-10-09T13:57:14;13.73;;;3.80;;
21360;SDS011;10839;43.206;23.550;2023-10-09T13:59:40;5.97;;;2.40;;
21360;SDS011;10839;43.206;23.550;2023-10-09T14:02:17;5.38;;;2.47;;
21360;SDS011;10839;43.206;23.550;2023-10-09T14:04:47;3.85;;;1.40;;
21360;SDS011;10839;43.206;23.550;2023-10-09T14:07:13;4.75;;;1.08;;
21360;SDS011;10839;43.206;23.550;2023-10-09T14:09:42;2.45;;;1.20;;
21360;SDS011;10839;43.206;23.550;2023-10-09T14:12:09;7.78;;;1.25;;
21360;SDS011;10839;43.206;23.550;2023-10-09T14:14:36;2.05;;;0.88;;
21360;SDS011;10839;43.206;23.550;2023-10-09T14:17:06;3.30;;;1.50;;
21360;SDS011;10839;43.206;23.550;2023-10-09T14:19:42;2.28;;;1.35;;
21360;SDS011;10839;43.206;23.550;2023-10-09T14:22:17;19.27;;;11.57;;
21360;SDS011;10839;43.206;23.550;2023-10-09T14:24:44;10.85;;;4.07;;
21360;SDS011;10839;43.206;23.550;2023-10-09T14:27:11;7.10;;;3.20;;
21360;SDS011;10839;43.206;23.550;2023-10-09T14:29:46;3.58;;;1.88;;
21360;SDS011;10839;43.206;23.550;2023-10-09T14:32:13;2.45;;;1.40;;
21360;SDS011;10839;43.206;23.550;2023-10-09T14:34:39;2.28;;;1.35;;
21360;SDS011;10839;43.206;23.550;2023-10-09T14:37:11;6.18;;;2.45;;
21360;SDS011;10839;43.206;23.550;2023-10-09T14:39:43;2.50;;;1.50;;
21360;SDS011;10839;43.206;23.550;2023-10-09T14:42:17;5.03;;;1.48;;
21360;SDS011;10839;43.206;23.550;2023-10-09T14:44:45;5.68;;;1.60;;
21360;SDS011;10839;43.206;23.550;2023-10-09T14:47:12;3.90;;;1.70;;
21360;SDS011;10839;43.206;23.550;2023-10-09T14:49:39;8.30;;;2.03;;
21360;SDS011;10839;43.206;23.550;2023-10-09T14:52:12;5.88;;;2.78;;
21360;SDS011;10839;43.206;23.550;2023-10-09T14:54:46;5.82;;;2.22;;
21360;SDS011;10839;43.206;23.550;2023-10-09T14:57:12;7.15;;;2.17;;
21360;SDS011;10839;43.206;23.550;2023-10-09T14:59:39;6.90;;;3.35;;
21360;SDS011;10839;43.206;23.550;2023-10-09T15:02:05;12.88;;;3.75;;
21360;SDS011;10839;43.206;23.550;2023-10-09T15:04:32;7.90;;;2.95;;
21360;SDS011;10839;43.206;23.550;2023-10-09T15:07:02;6.63;;;2.80;;
21360;SDS011;10839;43.206;23.550;2023-10-09T15:09:36;5.38;;;2.10;;
21360;SDS011;10839;43.206;23.550;2023-10-09T15:12:02;11.63;;;1.85;;
21360;SDS011;10839;43.206;23.550;2023-10-09T15:14:32;4.22;;;2.00;;
21360;SDS011;10839;43.206;23.550;2023-10-09T15:16:59;4.93;;;2.25;;
21360;SDS011;10839;43.206;23.550;2023-10-09T15:19:25;8.77;;;2.63;;
21360;SDS011;10839;43.206;23.550;2023-10-09T15:21:55;6.05;;;2.60;;
21360;SDS011;10839;43.206;23.550;2023-10-09T15:24:27;3.20;;;1.80;;
21360;SDS011;10839;43.206;23.550;2023-10-09T15:26:53;4.70;;;1.55;;
21360;SDS011;10839;43.206;23.550;2023-10-09T15:29:25;5.38;;;2.00;;
21360;SDS011;10839;43.206;23.550;2023-10-09T15:31:59;6.43;;;1.92;;
21360;SDS011;10839;43.206;23.550;2023-10-09T15:34:40;5.53;;;1.70;;
21360;SDS011;10839;43.206;23.550;2023-10-09T15:37:06;5.53;;;1.95;;
21360;SDS011;10839;43.206;23.550;2023-10-09T15:39:36;4.60;;;1.65;;
21360;SDS011;10839;43.206;23.550;2023-10-09T15:42:02;12.55;;;3.83;;
21360;SDS011;10839;43.206;23.550;2023-10-09T15:44:32;23.77;;;11.13;;
21360;SDS011;10839;43.206;23.550;2023-10-09T15:47:04;22.45;;;10.57;;
21360;SDS011;10839;43.206;23.550;2023-10-09T15:49:34;14.90;;;8.75;;
21360;SDS011;10839;43.206;23.550;2023-10-09T15:52:06;15.05;;;5.88;;
21360;SDS011;10839;43.206;23.550;2023-10-09T15:54:34;11.60;;;3.15;;